Time;durP1;ratioP1;P1;durP2;ratioP2;P2;SDS_P1;SDS_P2;PMS_P1;PMS_P2;Temp;Humidity;BMP_temperature;BMP_pressure;BME280_temperature;BME280_humidity;BME280_pressure;Samples;Min_cycle;Max_cycle;Signal;HPM_P1;HPM_P2
2022/03/29 00:04:00;;;;;;;;;0.00;0.00;;;;;;;;2;261077246;261077246;-75
2022/03/29 00:13:28;;;;;;;;;0.00;0.00;;;;;;;;2;288085931;288085931;-75
2022/03/29 00:21:43;;;;;;;;;0.00;0.00;;;;;;;;2;261078414;261078414;-75
2022/03/29 00:31:12;;;;;;;;;0.00;0.00;;;;;;;;2;288086785;288086785;-75
2022/03/29 00:39:27;;;;;;;;;0.00;0.00;;;;;;;;2;261079426;261079426;-75
2022/03/29 00:52:15;;;;;;;;;0.00;0.00;;;;;;;;2;288087186;288087186;-75
2022/03/29 01:00:31;;;;;;;;;0.00;0.00;;;;;;;;2;261079289;261079289;-75
2022/03/29 01:10:00;;;;;;;;;0.00;0.00;;;;;;;;2;288083221;288083221;-75
2022/03/29 01:18:17;;;;;;;;;0.00;0.00;;;;;;;;2;261075377;261075377;-75
2022/03/29 01:27:46;;;;;;;;;0.00;0.00;;;;;;;;2;288085213;288085213;-75
2022/03/29 01:36:02;;;;;;;;;0.00;0.00;;;;;;;;2;261075023;261075023;-75
2022/03/29 01:45:31;;;;;;;;;0.00;0.00;;;;;;;;2;288086813;288086813;-75
2022/03/29 01:53:51;;;;;;;;;0.00;0.00;;;;;;;;2;261076162;261076162;-74
2022/03/29 02:03:19;;;;;;;;;0.00;0.00;;;;;;;;2;288085418;288085418;-75
2022/03/29 02:11:38;;;;;;;;;0.00;0.00;;;;;;;;2;261075195;261075195;-75
2022/03/29 02:21:05;;;;;;;;;0.00;0.00;;;;;;;;2;288081818;288081818;-74
2022/03/29 02:29:21;;;;;;;;;0.00;0.00;;;;;;;;2;261077332;261077332;-75
2022/03/29 02:38:48;;;;;;;;;0.00;0.00;;;;;;;;2;288083373;288083373;-75
2022/03/29 02:47:04;;;;;;;;;0.00;0.00;;;;;;;;2;261079080;261079080;-75
2022/03/29 02:56:31;;;;;;;;;0.00;0.00;;;;;;;;2;288084902;288084902;-75
2022/03/29 03:04:47;;;;;;;;;0.00;0.00;;;;;;;;2;261078487;261078487;-75
2022/03/29 03:14:15;;;;;;;;;0.00;0.00;;;;;;;;2;288084089;288084089;-75
2022/03/29 03:22:30;;;;;;;;;0.00;0.00;;;;;;;;2;261077283;261077283;-75
2022/03/29 03:31:58;;;;;;;;;0.00;0.00;;;;;;;;2;288086594;288086594;-75
2022/03/29 03:40:14;;;;;;;;;0.00;0.00;;;;;;;;2;261077163;261077163;-75
2022/03/29 03:49:41;;;;;;;;;0.00;0.00;;;;;;;;2;288085331;288085331;-75
2022/03/29 03:57:57;;;;;;;;;0.00;0.00;;;;;;;;2;261077544;261077544;-75
2022/03/29 04:07:24;;;;;;;;;0.00;0.00;;;;;;;;2;288084348;288084348;-75
2022/03/29 04:15:40;;;;;;;;;0.00;0.00;;;;;;;;2;261077004;261077004;-75
2022/03/29 04:25:08;;;;;;;;;0.00;0.00;;;;;;;;2;288083961;288083961;-75
2022/03/29 04:33:23;;;;;;;;;0.00;0.00;;;;;;;;2;261078586;261078586;-75
2022/03/29 04:42:52;;;;;;;;;0.00;0.00;;;;;;;;2;288081123;288081123;-75
2022/03/29 04:51:07;;;;;;;;;0.00;0.00;;;;;;;;2;261077126;261077126;-75
2022/03/29 05:00:34;;;;;;;;;0.00;0.00;;;;;;;;2;288083039;288083039;-75
2022/03/29 05:08:50;;;;;;;;;0.00;0.00;;;;;;;;2;261075993;261075993;-75
2022/03/29 05:18:17;;;;;;;;;0.00;0.00;;;;;;;;2;288083276;288083276;-75
2022/03/29 05:26:33;;;;;;;;;0.00;0.00;;;;;;;;2;261077547;261077547;-76
2022/03/29 05:36:02;;;;;;;;;0.00;0.00;;;;;;;;2;288087294;288087294;-74
2022/03/29 05:44:17;;;;;;;;;0.00;0.00;;;;;;;;2;261079393;261079393;-76
2022/03/29 05:53:45;;;;;;;;;0.00;0.00;;;;;;;;2;288084631;288084631;-75
2022/03/29 06:02:04;;;;;;;;;0.00;0.00;;;;;;;;2;261077198;261077198;-75
2022/03/29 06:11:32;;;;;;;;;0.00;0.00;;;;;;;;2;288082956;288082956;-76
2022/03/29 06:19:48;;;;;;;;;0.00;0.00;;;;;;;;2;261078838;261078838;-77
2022/03/29 06:29:15;;;;;;;;;0.00;0.00;;;;;;;;2;288086480;288086480;-76
2022/03/29 06:37:30;;;;;;;;;0.00;0.00;;;;;;;;2;261077443;261077443;-76
2022/03/29 06:46:58;;;;;;;;;0.00;0.00;;;;;;;;2;288090261;288090261;-75
2022/03/29 06:55:15;;;;;;;;;0.00;0.00;;;;;;;;2;261077950;261077950;-76
2022/03/29 07:04:43;;;;;;;;;0.00;0.00;;;;;;;;2;288085756;288085756;-76
2022/03/29 07:13:01;;;;;;;;;0.00;0.00;;;;;;;;2;261075493;261075493;-75
2022/03/29 07:22:30;;;;;;;;;0.00;0.00;;;;;;;;2;288087606;288087606;-76
2022/03/29 07:30:46;;;;;;;;;0.00;0.00;;;;;;;;2;261075888;261075888;-75
2022/03/29 07:40:17;;;;;;;;;0.00;0.00;;;;;;;;2;288084510;288084510;-75
2022/03/29 07:48:34;;;;;;;;;0.00;0.00;;;;;;;;2;261079015;261079015;-75
2022/03/29 07:58:02;;;;;;;;;0.00;0.00;;;;;;;;2;288089187;288089187;-76
2022/03/29 08:06:19;;;;;;;;;0.00;0.00;;;;;;;;2;261079207;261079207;-76
2022/03/29 08:15:50;;;;;;;;;0.00;0.00;;;;;;;;2;288083556;288083556;-76
2022/03/29 08:24:07;;;;;;;;;0.00;0.00;;;;;;;;2;261078330;261078330;-76
2022/03/29 08:33:35;;;;;;;;;0.00;0.00;;;;;;;;2;288084128;288084128;-76
2022/03/29 08:42:08;;;;;;;;;0.00;0.00;;;;;;;;2;261080415;261080415;-76
2022/03/29 08:51:39;;;;;;;;;0.00;0.00;;;;;;;;2;288086460;288086460;-75
2022/03/29 08:59:56;;;;;;;;;0.00;0.00;;;;;;;;2;261080879;261080879;-75
2022/03/29 09:09:44;;;;;;;;;0.00;0.00;;;;;;;;2;288086586;288086586;-76
2022/03/29 09:18:07;;;;;;;;;0.00;0.00;;;;;;;;2;261077422;261077422;-77
2022/03/29 09:27:54;;;;;;;;;0.00;0.00;;;;;;;;2;288083421;288083421;-74
2022/03/29 09:36:14;;;;;;;;;0.00;0.00;;;;;;;;2;261076528;261076528;-74
2022/03/29 09:45:45;;;;;;;;;0.00;0.00;;;;;;;;2;288083574;288083574;-74
2022/03/29 09:54:05;;;;;;;;;0.00;0.00;;;;;;;;2;261079073;261079073;-81
2022/03/29 10:03:38;;;;;;;;;0.00;0.00;;;;;;;;2;288082551;288082551;-80
2022/03/29 10:11:59;;;;;;;;;0.00;0.00;;;;;;;;2;261076656;261076656;-80
2022/03/29 10:21:28;;;;;;;;;0.00;0.00;;;;;;;;2;288084038;288084038;-80
2022/03/29 10:29:45;;;;;;;;;0.00;0.00;;;;;;;;2;261076965;261076965;-80
2022/03/29 10:39:21;;;;;;;;;0.00;0.00;;;;;;;;2;288087255;288087255;-80
2022/03/29 10:47:37;;;;;;;;;0.00;0.00;;;;;;;;2;261076013;261076013;-78
2022/03/29 10:57:07;;;;;;;;;0.00;0.00;;;;;;;;2;288085210;288085210;-79
2022/03/29 11:05:23;;;;;;;;;0.00;0.00;;;;;;;;2;261076388;261076388;-79
2022/03/29 11:14:51;;;;;;;;;0.00;0.00;;;;;;;;2;288084806;288084806;-79
2022/03/29 11:23:09;;;;;;;;;0.00;0.00;;;;;;;;2;261075576;261075576;-80
2022/03/29 11:32:41;;;;;;;;;0.00;0.00;;;;;;;;2;288084341;288084341;-78
2022/03/29 11:40:59;;;;;;;;;0.00;0.00;;;;;;;;2;261078772;261078772;-79
2022/03/29 11:50:35;;;;;;;;;0.00;0.00;;;;;;;;2;288083613;288083613;-77
2022/03/29 11:58:53;;;;;;;;;0.00;0.00;;;;;;;;2;261077533;261077533;-78
2022/03/29 12:08:24;;;;;;;;;0.00;0.00;;;;;;;;2;288084733;288084733;-78
2022/03/29 12:16:41;;;;;;;;;0.00;0.00;;;;;;;;2;261077934;261077934;-80
2022/03/29 12:26:10;;;;;;;;;0.00;0.00;;;;;;;;2;288083913;288083913;-80
2022/03/29 12:34:32;;;;;;;;;0.00;0.00;;;;;;;;2;261075376;261075376;-80
2022/03/29 12:44:01;;;;;;;;;0.00;0.00;;;;;;;;2;288084822;288084822;-79
2022/03/29 12:52:18;;;;;;;;;0.00;0.00;;;;;;;;2;261081582;261081582;-79
2022/03/29 13:01:47;;;;;;;;;0.00;0.00;;;;;;;;2;288088294;288088294;-80
2022/03/29 13:10:05;;;;;;;;;0.00;0.00;;;;;;;;2;261078261;261078261;-79
2022/03/29 13:19:34;;;;;;;;;0.00;0.00;;;;;;;;2;288083889;288083889;-79
2022/03/29 13:27:50;;;;;;;;;0.00;0.00;;;;;;;;2;261077754;261077754;-77
2022/03/29 13:37:19;;;;;;;;;0.00;0.00;;;;;;;;2;288084372;288084372;-77
2022/03/29 13:45:35;;;;;;;;;0.00;0.00;;;;;;;;2;261078662;261078662;-75
2022/03/29 13:55:10;;;;;;;;;0.00;0.00;;;;;;;;2;288086956;288086956;-75
2022/03/29 14:03:28;;;;;;;;;0.00;0.00;;;;;;;;2;261076836;261076836;-75
2022/03/29 14:12:55;;;;;;;;;0.00;0.00;;;;;;;;2;288086968;288086968;-76
2022/03/29 14:21:11;;;;;;;;;0.00;0.00;;;;;;;;2;261079484;261079484;-76
2022/03/29 14:30:39;;;;;;;;;0.00;0.00;;;;;;;;2;288084184;288084184;-76
2022/03/29 14:38:56;;;;;;;;;0.00;0.00;;;;;;;;2;261076739;261076739;-76
2022/03/29 14:48:23;;;;;;;;;0.00;0.00;;;;;;;;2;288080985;288080985;-76
2022/03/29 14:56:39;;;;;;;;;0.00;0.00;;;;;;;;2;261078101;261078101;-76
2022/03/29 15:06:07;;;;;;;;;0.00;0.00;;;;;;;;2;288084284;288084284;-76
2022/03/29 15:14:23;;;;;;;;;0.00;0.00;;;;;;;;2;261076789;261076789;-76
2022/03/29 15:23:50;;;;;;;;;0.00;0.00;;;;;;;;2;288085581;288085581;-76
2022/03/29 15:32:06;;;;;;;;;0.00;0.00;;;;;;;;2;261075695;261075695;-76
2022/03/29 15:41:34;;;;;;;;;0.00;0.00;;;;;;;;2;288082381;288082381;-75
2022/03/29 15:49:50;;;;;;;;;0.00;0.00;;;;;;;;2;261075638;261075638;-76
2022/03/29 15:59:18;;;;;;;;;0.00;0.00;;;;;;;;2;288086307;288086307;-76
2022/03/29 16:07:33;;;;;;;;;0.00;0.00;;;;;;;;2;261074673;261074673;-76
2022/03/29 16:17:01;;;;;;;;;0.00;0.00;;;;;;;;2;288082596;288082596;-75
2022/03/29 16:25:17;;;;;;;;;0.00;0.00;;;;;;;;2;261077033;261077033;-75
2022/03/29 16:34:44;;;;;;;;;0.00;0.00;;;;;;;;2;288083775;288083775;-75
2022/03/29 16:43:00;;;;;;;;;0.00;0.00;;;;;;;;2;261075772;261075772;-76
2022/03/29 16:52:28;;;;;;;;;0.00;0.00;;;;;;;;2;288081895;288081895;-76
2022/03/29 17:00:44;;;;;;;;;0.00;0.00;;;;;;;;2;261077458;261077458;-76
2022/03/29 17:10:11;;;;;;;;;0.00;0.00;;;;;;;;2;288085747;288085747;-75
2022/03/29 17:18:27;;;;;;;;;0.00;0.00;;;;;;;;2;261075067;261075067;-76
2022/03/29 17:27:55;;;;;;;;;0.00;0.00;;;;;;;;2;288085005;288085005;-76
2022/03/29 17:36:10;;;;;;;;;0.00;0.00;;;;;;;;2;261077197;261077197;-75
2022/03/29 17:45:38;;;;;;;;;0.00;0.00;;;;;;;;2;288084091;288084091;-75
2022/03/29 17:53:54;;;;;;;;;0.00;0.00;;;;;;;;2;261078992;261078992;-76
2022/03/29 18:03:21;;;;;;;;;0.00;0.00;;;;;;;;2;288082098;288082098;-75
2022/03/29 18:11:37;;;;;;;;;0.00;0.00;;;;;;;;2;261076646;261076646;-75
2022/03/29 18:21:05;;;;;;;;;0.00;0.00;;;;;;;;2;288084996;288084996;-75
2022/03/29 18:29:20;;;;;;;;;0.00;0.00;;;;;;;;2;261078361;261078361;-76
2022/03/29 18:38:48;;;;;;;;;0.00;0.00;;;;;;;;2;288085009;288085009;-76
2022/03/29 18:47:05;;;;;;;;;0.00;0.00;;;;;;;;2;261077900;261077900;-75
2022/03/29 18:56:32;;;;;;;;;0.00;0.00;;;;;;;;2;288083730;288083730;-75
2022/03/29 19:04:48;;;;;;;;;0.00;0.00;;;;;;;;2;261075814;261075814;-76
2022/03/29 19:14:16;;;;;;;;;0.00;0.00;;;;;;;;2;288085145;288085145;-76
2022/03/29 19:22:31;;;;;;;;;0.00;0.00;;;;;;;;2;261077147;261077147;-77
2022/03/29 19:32:05;;;;;;;;;0.00;0.00;;;;;;;;2;288084924;288084924;-76
2022/03/29 19:40:21;;;;;;;;;0.00;0.00;;;;;;;;2;261077674;261077674;-76
2022/03/29 19:49:49;;;;;;;;;0.00;0.00;;;;;;;;2;288083526;288083526;-76
2022/03/29 19:58:05;;;;;;;;;0.00;0.00;;;;;;;;2;261076415;261076415;-75
2022/03/29 20:07:34;;;;;;;;;0.00;0.00;;;;;;;;2;288083288;288083288;-75
2022/03/29 20:15:49;;;;;;;;;0.00;0.00;;;;;;;;2;261075892;261075892;-76
2022/03/29 20:25:17;;;;;;;;;0.00;0.00;;;;;;;;2;288084738;288084738;-75
2022/03/29 20:33:33;;;;;;;;;0.00;0.00;;;;;;;;2;261074790;261074790;-75
2022/03/29 20:43:01;;;;;;;;;0.00;0.00;;;;;;;;2;288084984;288084984;-75
2022/03/29 20:51:17;;;;;;;;;0.00;0.00;;;;;;;;2;261074598;261074598;-75
2022/03/29 21:00:45;;;;;;;;;0.00;0.00;;;;;;;;2;288083277;288083277;-75
2022/03/29 21:09:01;;;;;;;;;0.00;0.00;;;;;;;;2;261074144;261074144;-75
2022/03/29 21:18:29;;;;;;;;;0.00;0.00;;;;;;;;2;288082776;288082776;-75
2022/03/29 21:26:44;;;;;;;;;0.00;0.00;;;;;;;;2;261078545;261078545;-76
2022/03/29 21:36:12;;;;;;;;;0.00;0.00;;;;;;;;2;288084021;288084021;-75
2022/03/29 21:44:27;;;;;;;;;0.00;0.00;;;;;;;;2;261076408;261076408;-76
2022/03/29 21:53:55;;;;;;;;;0.00;0.00;;;;;;;;2;288086569;288086569;-75
2022/03/29 22:02:10;;;;;;;;;0.00;0.00;;;;;;;;2;261074454;261074454;-74
2022/03/29 22:11:38;;;;;;;;;0.00;0.00;;;;;;;;2;288085401;288085401;-74
2022/03/29 22:19:53;;;;;;;;;0.00;0.00;;;;;;;;2;261072538;261072538;-75
2022/03/29 22:29:21;;;;;;;;;0.00;0.00;;;;;;;;2;288085815;288085815;-74
2022/03/29 22:37:36;;;;;;;;;0.00;0.00;;;;;;;;2;261075946;261075946;-75
2022/03/29 22:47:04;;;;;;;;;0.00;0.00;;;;;;;;2;288084647;288084647;-74
2022/03/29 22:55:24;;;;;;;;;0.00;0.00;;;;;;;;2;261077375;261077375;-75
2022/03/29 23:04:51;;;;;;;;;0.00;0.00;;;;;;;;2;288082574;288082574;-74
2022/03/29 23:13:07;;;;;;;;;0.00;0.00;;;;;;;;2;261078262;261078262;-74
2022/03/29 23:22:34;;;;;;;;;0.00;0.00;;;;;;;;2;288084997;288084997;-75
2022/03/29 23:30:50;;;;;;;;;0.00;0.00;;;;;;;;2;261076259;261076259;-75
2022/03/29 23:40:17;;;;;;;;;0.00;0.00;;;;;;;;2;288082815;288082815;-75
2022/03/29 23:48:33;;;;;;;;;0.00;0.00;;;;;;;;2;261077149;261077149;-75
2022/03/29 23:58:00;;;;;;;;;0.00;0.00;;;;;;;;2;288081874;288081874;-74
